createdAt,value
2018-03-08T15:03:40.392Z,25.30
2018-03-08T15:06:07.863Z,25.60
2018-03-08T15:08:36.695Z,25.70
2018-03-08T15:11:04.187Z,26.20
2018-03-08T15:13:32.313Z,25.90
2018-03-08T15:16:00.580Z,26.30
2018-03-08T15:18:29.811Z,26.40
2018-03-08T15:20:57.291Z,26.30
2018-03-08T15:23:25.256Z,27.50
2018-03-08T15:25:52.723Z,27.20
2018-03-08T15:28:20.372Z,27.10
2018-03-08T15:30:47.942Z,25.90
2018-03-08T15:33:15.432Z,25.20
2018-03-08T15:35:43.686Z,25.80
2018-03-08T15:38:11.983Z,25.80
2018-03-08T15:40:40.248Z,26.50
2018-03-08T15:43:08.504Z,26.80
2018-03-08T15:45:35.979Z,26.80
2018-03-08T15:48:04.484Z,26.50
2018-03-08T15:50:32.721Z,26.80
2018-03-08T15:53:00.173Z,26.80
2018-03-08T15:55:27.753Z,26.90
2018-03-08T15:57:55.508Z,27.20
2018-03-08T16:00:23.066Z,27.30
2018-03-08T16:02:50.527Z,28.00
2018-03-08T16:05:17.983Z,27.70
2018-03-08T16:10:56.942Z,28.20
2018-03-08T16:13:24.511Z,28.30
2018-03-08T16:15:52.185Z,29.20
2018-03-08T16:18:20.431Z,29.20
2018-03-08T16:20:48.208Z,29.20
2018-03-08T16:23:15.681Z,29.70
2018-03-08T16:25:43.913Z,30.40
2018-03-08T16:28:11.374Z,30.40
2018-03-08T16:30:38.834Z,30.20
2018-03-08T16:33:06.302Z,30.40
2018-03-08T16:35:33.779Z,30.50
2018-03-08T16:38:01.377Z,30.80
2018-03-08T16:40:29.353Z,31.10
2018-03-08T16:42:56.925Z,31.30
2018-03-08T16:45:24.439Z,31.60
2018-03-08T16:47:53.674Z,31.90
2018-03-08T16:50:21.151Z,31.70
2018-03-08T16:52:48.600Z,31.90
2018-03-08T16:55:17.633Z,32.20
2018-03-08T16:57:45.092Z,32.60
2018-03-08T17:00:12.652Z,33.10
2018-03-08T17:02:40.116Z,33.80
2018-03-08T17:05:07.801Z,34.20
2018-03-08T17:07:36.350Z,36.30
2018-03-08T17:10:03.822Z,35.60
2018-03-08T17:12:32.386Z,35.90
2018-03-08T17:15:00.571Z,36.10
2018-03-08T17:17:28.691Z,37.20
2018-03-08T17:22:30.901Z,37.50
2018-03-08T17:24:58.730Z,38.30
2018-03-08T17:27:26.173Z,39.00
2018-03-08T17:29:54.447Z,39.80
2018-03-08T17:32:22.716Z,39.30
2018-03-08T17:34:51.891Z,39.00
2018-03-08T17:37:19.367Z,39.00
2018-03-08T17:39:46.819Z,39.20
2018-03-08T17:42:14.284Z,39.30
2018-03-08T17:44:42.280Z,39.00
2018-03-08T17:47:10.528Z,39.00
2018-03-08T17:49:37.988Z,36.90
2018-03-08T17:52:05.451Z,36.80
2018-03-08T17:54:33.698Z,40.10
2018-03-08T17:57:01.171Z,39.30
2018-03-08T17:59:29.863Z,39.30
2018-03-08T18:01:57.331Z,40.70
2018-03-08T18:04:25.205Z,41.40
2018-03-08T18:06:53.483Z,41.50
2018-03-08T18:09:22.069Z,42.50
2018-03-08T18:11:50.364Z,41.50
2018-03-08T18:14:17.890Z,41.50
2018-03-08T18:16:45.550Z,41.90
2018-03-08T18:19:13.934Z,42.50
2018-03-08T18:21:42.203Z,43.00
2018-03-08T18:24:09.661Z,43.40
2018-03-08T18:26:37.576Z,43.80
2018-03-08T18:29:05.037Z,44.00
2018-03-08T18:31:32.501Z,45.10
2018-03-08T18:34:00.371Z,45.00
2018-03-08T18:36:28.696Z,44.90
2018-03-08T18:38:56.157Z,44.70
2018-03-08T18:41:23.655Z,44.30
2018-03-08T18:43:51.439Z,43.60
2018-03-08T18:46:18.908Z,43.30
2018-03-08T18:48:46.772Z,43.20
2018-03-08T18:51:14.242Z,43.30
2018-03-08T18:53:41.717Z,43.50
2018-03-08T18:56:09.188Z,43.40
2018-03-08T18:58:36.646Z,43.50
2018-03-08T19:01:04.104Z,43.70
2018-03-08T19:03:32.343Z,45.30
2018-03-08T19:05:59.843Z,44.40
2018-03-08T19:08:28.902Z,44.20
2018-03-08T19:10:56.368Z,44.10
2018-03-08T19:13:23.826Z,44.70
2018-03-08T19:15:51.282Z,45.50
2018-03-08T19:18:19.237Z,45.70
2018-03-08T19:20:47.547Z,46.10
2018-03-08T19:23:15.160Z,45.80
2018-03-08T19:25:43.357Z,46.10
2018-03-08T19:28:10.838Z,46.20
2018-03-08T19:30:38.357Z,46.70
2018-03-08T19:33:05.860Z,47.20
2018-03-08T19:35:33.320Z,46.90
2018-03-08T19:38:00.790Z,47.00
2018-03-08T19:40:29.021Z,46.80
2018-03-08T19:42:56.516Z,46.80
2018-03-08T19:45:23.972Z,47.40
2018-03-08T19:47:51.442Z,47.80
2018-03-08T19:50:20.004Z,48.60
2018-03-08T19:52:47.708Z,48.50
2018-03-08T19:55:15.171Z,48.50
2018-03-08T19:57:42.676Z,48.70
2018-03-08T20:00:10.658Z,48.80
2018-03-08T20:02:38.140Z,49.00
2018-03-08T20:05:07.938Z,48.50
2018-03-08T20:07:35.415Z,48.40
2018-03-08T20:10:03.627Z,48.20
2018-03-08T20:12:31.090Z,48.10
2018-03-08T20:14:58.542Z,48.20
2018-03-08T20:17:26.372Z,48.00
2018-03-08T20:19:56.378Z,48.30
2018-03-08T20:22:25.316Z,48.30
2018-03-08T20:24:53.519Z,48.30
2018-03-08T20:27:21.759Z,48.10
2018-03-08T20:29:49.637Z,48.30
2018-03-08T20:32:17.138Z,48.90
2018-03-08T20:34:44.595Z,49.10
2018-03-08T20:37:12.082Z,49.30
2018-03-08T20:39:41.237Z,50.20
2018-03-08T20:42:08.704Z,50.20
2018-03-08T20:44:36.163Z,50.70
2018-03-08T20:47:04.395Z,51.80
2018-03-08T20:49:31.942Z,51.20
2018-03-08T20:51:59.673Z,51.40
2018-03-08T20:54:27.144Z,51.90
2018-03-08T20:56:55.507Z,52.20
2018-03-08T20:59:22.979Z,52.80
2018-03-08T21:01:50.672Z,53.00
2018-03-08T21:04:18.245Z,53.60
2018-03-08T21:06:45.762Z,53.60
2018-03-08T21:09:13.179Z,53.50
2018-03-08T21:11:41.309Z,53.90
2018-03-08T21:14:10.046Z,54.40
2018-03-08T21:16:37.712Z,54.40
2018-03-08T21:19:05.197Z,54.60
2018-03-08T21:21:33.399Z,55.00
2018-03-08T21:24:02.078Z,55.60
2018-03-08T21:26:31.091Z,56.00
2018-03-08T21:28:59.254Z,55.90
2018-03-08T21:31:27.946Z,56.10
2018-03-08T21:33:55.414Z,55.90
2018-03-08T21:36:22.874Z,55.00
2018-03-08T21:38:50.791Z,54.80
2018-03-08T21:41:18.256Z,54.60
2018-03-08T21:43:45.815Z,54.30
2018-03-08T21:46:14.095Z,53.20
2018-03-08T21:48:41.735Z,53.20
2018-03-08T21:51:10.252Z,52.70
2018-03-08T21:53:38.482Z,52.40
2018-03-08T21:56:05.967Z,52.30
2018-03-08T21:58:35.509Z,52.10
2018-03-08T22:01:03.973Z,51.70
2018-03-08T22:03:32.208Z,51.70
2018-03-08T22:06:00.126Z,51.50
2018-03-08T22:08:28.715Z,51.80
2018-03-08T22:10:56.991Z,51.70
2018-03-08T22:13:25.793Z,51.90
2018-03-08T22:15:53.254Z,51.80
2018-03-08T22:18:20.702Z,52.00
2018-03-08T22:20:48.415Z,51.90
2018-03-08T22:23:17.067Z,52.00
2018-03-08T22:25:45.099Z,52.10
2018-03-08T22:28:12.563Z,52.30
2018-03-08T22:30:40.786Z,52.70
2018-03-08T22:33:08.317Z,52.60
2018-03-08T22:35:36.278Z,53.00
2018-03-08T22:38:04.508Z,52.60
2018-03-08T22:40:32.215Z,52.60
2018-03-08T22:43:00.498Z,50.90
2018-03-08T22:45:27.909Z,50.80
2018-03-08T22:47:56.812Z,50.20
2018-03-08T22:50:25.032Z,49.70
2018-03-08T22:52:52.494Z,49.80
2018-03-08T22:55:21.012Z,49.50
2018-03-08T22:57:48.495Z,49.20
2018-03-08T23:00:15.950Z,48.90
2018-03-08T23:02:43.422Z,48.60
2018-03-08T23:05:11.641Z,48.40
2018-03-08T23:07:39.302Z,48.40
2018-03-08T23:10:06.805Z,48.20
2018-03-08T23:12:34.962Z,48.20
2018-03-08T23:15:02.533Z,48.30
2018-03-08T23:17:30.747Z,48.60
2018-03-08T23:19:58.206Z,48.60
2018-03-08T23:22:25.658Z,48.60
2018-03-08T23:24:54.914Z,49.40
2018-03-08T23:27:23.065Z,49.30
2018-03-08T23:29:50.974Z,49.60
2018-03-08T23:32:18.798Z,49.70
2018-03-08T23:34:46.372Z,50.10
2018-03-08T23:37:13.818Z,50.20
2018-03-08T23:39:42.143Z,50.10
2018-03-08T23:42:10.438Z,50.20
2018-03-08T23:44:39.012Z,48.80
2018-03-08T23:47:07.239Z,48.30
2018-03-08T23:49:36.063Z,48.30
2018-03-08T23:52:04.403Z,47.50
2018-03-08T23:54:31.867Z,47.50
2018-03-08T23:56:59.415Z,47.10
2018-03-08T23:59:27.489Z,46.80
